createdAt,value
2019-03-20T00:00:20.059Z,73.38
2019-03-20T00:01:20.054Z,73.80
2019-03-20T00:02:20.078Z,73.90
2019-03-20T00:03:20.026Z,73.58
2019-03-20T00:04:20.021Z,73.27
2019-03-20T00:05:20.007Z,73.41
2019-03-20T00:06:19.997Z,73.69
2019-03-20T00:07:19.983Z,73.90
2019-03-20T00:08:20.014Z,74.01
2019-03-20T00:09:19.964Z,74.32
2019-03-20T00:10:19.968Z,74.01
2019-03-20T00:11:19.941Z,73.90
2019-03-20T00:12:19.933Z,73.72
2019-03-20T00:13:19.928Z,74.36
2019-03-20T00:14:19.947Z,73.52
2019-03-20T00:15:19.906Z,73.83
2019-03-20T00:16:19.915Z,74.15
2019-03-20T00:17:19.880Z,74.78
2019-03-20T00:18:19.912Z,75.10
2019-03-20T00:19:19.869Z,75.10
2019-03-20T00:20:19.850Z,73.94
2019-03-20T00:21:19.839Z,73.62
2019-03-20T00:22:19.835Z,74.26
2019-03-20T00:23:19.818Z,74.04
2019-03-20T00:24:19.843Z,72.99
2019-03-20T00:25:19.795Z,72.88
2019-03-20T00:26:19.787Z,72.99
2019-03-20T00:27:19.817Z,73.41
2019-03-20T00:28:19.782Z,73.94
2019-03-20T00:29:19.755Z,74.15
2019-03-20T00:30:19.745Z,74.39
2019-03-20T00:31:19.768Z,73.76
2019-03-20T00:32:19.721Z,73.76
2019-03-20T00:33:19.710Z,74.15
2019-03-20T00:34:19.717Z,74.15
2019-03-20T00:35:19.693Z,74.15
2019-03-20T00:36:19.682Z,74.39
2019-03-20T00:37:19.709Z,74.29
2019-03-20T00:38:19.656Z,74.39
2019-03-20T00:39:19.646Z,75.02
2019-03-20T00:40:19.650Z,75.02
2019-03-20T00:41:19.626Z,75.24
2019-03-20T00:42:19.612Z,75.02
2019-03-20T00:43:19.644Z,75.13
2019-03-20T00:44:19.593Z,75.16
2019-03-20T00:45:19.588Z,75.16
2019-03-20T00:46:19.579Z,75.16
2019-03-20T00:47:19.561Z,75.06
2019-03-20T00:48:19.554Z,75.16
2019-03-20T00:49:19.575Z,74.85
2019-03-20T00:50:19.535Z,75.27
2019-03-20T00:51:19.526Z,75.27
2019-03-20T00:52:19.527Z,75.27
2019-03-20T00:53:19.497Z,74.85
2019-03-20T00:54:19.491Z,75.62
2019-03-20T00:55:19.508Z,75.62
2019-03-20T00:56:19.467Z,75.51
2019-03-20T00:57:19.458Z,74.88
2019-03-20T00:58:19.455Z,74.77
2019-03-20T00:59:19.435Z,74.88
2019-03-20T01:00:19.461Z,75.09
2019-03-20T01:01:19.420Z,75.13
2019-03-20T01:02:19.404Z,75.55
2019-03-20T01:03:19.395Z,75.76
2019-03-20T01:04:19.390Z,75.69
2019-03-20T01:05:19.373Z,75.76
2019-03-20T01:06:19.392Z,75.69
2019-03-20T01:07:19.347Z,75.69
2019-03-20T01:08:19.339Z,75.69
2019-03-20T01:09:19.327Z,76.01
2019-03-20T01:10:19.326Z,76.01
2019-03-20T01:11:19.349Z,75.79
2019-03-20T01:12:19.295Z,75.79
2019-03-20T01:13:19.288Z,77.06
2019-03-20T01:14:19.281Z,76.96
2019-03-20T01:15:19.268Z,76.67
2019-03-20T01:16:19.268Z,77.20
2019-03-20T01:17:19.286Z,77.20
2019-03-20T01:18:19.237Z,76.85
2019-03-20T01:19:19.226Z,76.89
2019-03-20T01:20:19.218Z,76.99
2019-03-20T01:21:19.211Z,76.89
2019-03-20T01:22:19.205Z,76.99
2019-03-20T01:23:19.223Z,77.10
2019-03-20T01:24:19.171Z,77.31
2019-03-20T01:25:19.159Z,77.52
2019-03-20T01:26:19.155Z,77.42
2019-03-20T01:27:19.142Z,77.62
2019-03-20T01:28:19.147Z,77.10
2019-03-20T01:29:19.155Z,76.57
2019-03-20T01:30:19.107Z,77.03
2019-03-20T01:31:19.097Z,77.45
2019-03-20T01:32:19.094Z,77.45
2019-03-20T01:33:19.079Z,77.24
2019-03-20T01:34:19.074Z,77.13
2019-03-20T01:35:23.882Z,77.13
2019-03-20T01:36:20.044Z,77.45
2019-03-20T01:37:19.068Z,77.70
2019-03-20T01:38:19.026Z,76.75
2019-03-20T01:39:19.016Z,77.66
2019-03-20T01:40:19.018Z,77.38
2019-03-20T01:41:18.997Z,77.06
2019-03-20T01:42:19.027Z,76.95
2019-03-20T01:43:18.972Z,77.17
2019-03-20T01:44:19.051Z,76.85
2019-03-20T01:45:18.958Z,77.17
2019-03-20T01:46:18.944Z,77.17
2019-03-20T01:47:18.949Z,77.06
2019-03-20T01:48:18.959Z,77.06
2019-03-20T01:49:18.911Z,76.95
2019-03-20T01:50:18.903Z,76.95
2019-03-20T01:51:18.892Z,77.09
2019-03-20T01:52:18.879Z,77.31
2019-03-20T01:53:18.886Z,77.31
2019-03-20T01:54:18.907Z,75.40
2019-03-20T01:55:18.848Z,76.25
2019-03-20T01:56:18.839Z,75.19
2019-03-20T01:57:18.829Z,75.29
2019-03-20T01:58:18.817Z,75.29
2019-03-20T01:59:18.823Z,75.51
2019-03-20T02:00:18.833Z,75.29
2019-03-20T02:01:18.783Z,75.29
2019-03-20T02:02:18.791Z,75.62
2019-03-20T02:03:18.766Z,75.75
2019-03-20T02:04:18.753Z,75.09
2019-03-20T02:05:18.815Z,75.43
2019-03-20T02:06:18.773Z,75.72
2019-03-20T02:07:18.726Z,75.86
2019-03-20T02:08:18.714Z,76.28
2019-03-20T02:09:18.739Z,75.96
2019-03-20T02:10:18.693Z,75.75
2019-03-20T02:11:18.701Z,75.86
2019-03-20T02:12:18.712Z,75.72
2019-03-20T02:13:18.661Z,75.12
2019-03-20T02:14:18.655Z,75.65
2019-03-20T02:15:18.643Z,75.54
2019-03-20T02:16:18.634Z,76.28
2019-03-20T02:17:18.634Z,76.18
2019-03-20T02:18:18.645Z,75.86
2019-03-20T02:19:18.599Z,75.75
2019-03-20T02:20:18.590Z,76.07
2019-03-20T02:21:18.579Z,75.33
2019-03-20T02:22:18.566Z,75.33
2019-03-20T02:23:18.575Z,75.75
2019-03-20T02:24:18.590Z,76.28
2019-03-20T02:25:18.538Z,76.39
2019-03-20T02:26:18.530Z,76.32
2019-03-20T02:27:18.528Z,75.86
2019-03-20T02:28:18.505Z,75.89
2019-03-20T02:29:18.508Z,76.00
2019-03-20T02:30:18.544Z,75.26
2019-03-20T02:31:18.481Z,75.79
2019-03-20T02:32:18.465Z,76.10
2019-03-20T02:33:18.454Z,76.00
2019-03-20T02:34:18.455Z,75.79
2019-03-20T02:35:18.451Z,76.00
2019-03-20T02:36:18.457Z,74.84
2019-03-20T02:37:18.413Z,75.47
2019-03-20T02:38:18.441Z,74.73
2019-03-20T02:39:18.393Z,74.30
2019-03-20T02:40:18.382Z,74.41
2019-03-20T02:41:18.388Z,75.47
2019-03-20T02:42:18.363Z,75.37
2019-03-20T02:43:18.351Z,75.18
2019-03-20T02:44:18.379Z,75.79
2019-03-20T02:45:18.341Z,75.68
2019-03-20T02:46:18.328Z,76.21
2019-03-20T02:47:18.324Z,75.89
2019-03-20T02:48:18.311Z,76.21
2019-03-20T02:49:18.288Z,76.21
2019-03-20T02:50:18.323Z,76.42
2019-03-20T02:51:18.268Z,76.25
2019-03-20T02:52:18.257Z,76.35
2019-03-20T02:53:18.268Z,76.99
2019-03-20T02:54:18.240Z,76.14
2019-03-20T02:55:18.328Z,75.29
2019-03-20T02:56:18.253Z,75.82
2019-03-20T02:57:18.207Z,75.51
2019-03-20T02:58:18.200Z,76.14
2019-03-20T02:59:18.204Z,76.14
2019-03-20T03:00:18.177Z,76.14
2019-03-20T03:01:18.202Z,76.03
2019-03-20T03:02:18.156Z,76.03
2019-03-20T03:03:18.148Z,75.29
2019-03-20T03:04:18.196Z,75.51
2019-03-20T03:05:18.206Z,75.29
2019-03-20T03:06:18.112Z,75.29
2019-03-20T03:07:18.141Z,75.40
2019-03-20T03:08:18.101Z,75.18
2019-03-20T03:09:18.080Z,75.93
2019-03-20T03:10:18.091Z,75.71
2019-03-20T03:11:18.084Z,75.18
2019-03-20T03:12:18.065Z,75.93
2019-03-20T03:13:18.079Z,76.03
2019-03-20T03:14:18.035Z,76.14
2019-03-20T03:15:18.019Z,75.82
2019-03-20T03:16:18.015Z,75.51
2019-03-20T03:17:18.014Z,75.82
2019-03-20T03:18:17.990Z,75.82
2019-03-20T03:19:18.014Z,75.61
2019-03-20T03:20:17.988Z,74.66
2019-03-20T03:21:17.956Z,73.91
2019-03-20T03:22:17.948Z,74.44
2019-03-20T03:23:17.990Z,74.84
2019-03-20T03:24:17.933Z,74.33
2019-03-20T03:25:17.999Z,75.40
2019-03-20T03:26:17.908Z,74.98
2019-03-20T03:27:17.905Z,74.55
2019-03-20T03:28:17.887Z,74.23
2019-03-20T03:29:17.918Z,74.66
2019-03-20T03:30:17.901Z,75.93
2019-03-20T03:31:17.869Z,75.40
2019-03-20T03:32:17.839Z,74.90
2019-03-20T03:33:17.840Z,75.43
2019-03-20T03:34:17.822Z,75.22
2019-03-20T03:35:19.801Z,74.90
2019-03-20T03:36:21.589Z,74.79
2019-03-20T03:37:17.795Z,74.58
2019-03-20T03:38:17.812Z,74.26
2019-03-20T03:39:17.772Z,74.26
2019-03-20T03:40:17.791Z,74.37
2019-03-20T03:41:17.756Z,74.16
2019-03-20T03:42:17.734Z,74.37
2019-03-20T03:43:17.797Z,74.79
2019-03-20T03:44:17.718Z,75.22
2019-03-20T03:45:17.716Z,74.79
2019-03-20T03:46:17.695Z,74.69
2019-03-20T03:47:17.704Z,73.38
2019-03-20T03:48:17.675Z,73.60
2019-03-20T03:49:17.706Z,74.13
2019-03-20T03:50:17.652Z,74.33
2019-03-20T03:51:17.642Z,73.91
2019-03-20T03:52:17.632Z,73.81
2019-03-20T03:53:17.629Z,73.60
2019-03-20T03:54:17.611Z,74.48
2019-03-20T03:55:17.639Z,74.26
2019-03-20T03:56:17.589Z,74.16
2019-03-20T03:57:17.615Z,74.90
2019-03-20T03:58:17.578Z,73.84
2019-03-20T03:59:17.577Z,74.48
2019-03-20T04:00:17.554Z,73.84
2019-03-20T04:01:17.577Z,74.16
2019-03-20T04:02:17.528Z,74.05
2019-03-20T04:03:17.517Z,73.66
2019-03-20T04:04:17.525Z,73.34
2019-03-20T04:05:17.514Z,73.63
2019-03-20T04:06:17.485Z,74.58
2019-03-20T04:07:17.527Z,75.04
2019-03-20T04:08:17.504Z,75.25
2019-03-20T04:09:17.466Z,75.25
2019-03-20T04:10:17.454Z,75.25
2019-03-20T04:11:17.434Z,75.57
2019-03-20T04:12:17.437Z,75.46
2019-03-20T04:13:17.447Z,75.46
2019-03-20T04:14:17.454Z,75.57
2019-03-20T04:15:17.436Z,75.39
2019-03-20T04:16:17.384Z,75.99
2019-03-20T04:17:17.376Z,75.36
2019-03-20T04:18:17.378Z,75.25
2019-03-20T04:19:17.385Z,75.46
2019-03-20T04:20:17.353Z,75.82
2019-03-20T04:21:17.334Z,75.89
2019-03-20T04:22:17.322Z,75.36
2019-03-20T04:23:17.314Z,75.25
2019-03-20T04:24:17.357Z,74.97
2019-03-20T04:25:17.295Z,75.89
2019-03-20T04:26:17.277Z,75.89
2019-03-20T04:27:17.271Z,75.25
2019-03-20T04:28:17.283Z,75.36
2019-03-20T04:29:17.253Z,74.40
2019-03-20T04:30:17.309Z,74.19
2019-03-20T04:31:17.225Z,74.62
2019-03-20T04:32:17.214Z,74.30
2019-03-20T04:33:17.202Z,73.98
2019-03-20T04:34:17.197Z,74.19
2019-03-20T04:35:17.183Z,74.40
2019-03-20T04:36:17.227Z,74.08
2019-03-20T04:37:17.159Z,73.77
2019-03-20T04:38:17.194Z,74.73
2019-03-20T04:39:17.138Z,74.40
2019-03-20T04:40:17.152Z,74.83
2019-03-20T04:41:17.119Z,74.51
2019-03-20T04:42:17.165Z,74.69
2019-03-20T04:43:17.102Z,74.16
2019-03-20T04:44:17.087Z,74.73
2019-03-20T04:45:17.083Z,74.40
2019-03-20T04:46:17.069Z,74.62
2019-03-20T04:47:17.051Z,74.40
2019-03-20T04:48:18.073Z,73.87
2019-03-20T04:49:17.039Z,73.55
2019-03-20T04:50:17.028Z,73.34
2019-03-20T04:51:24.192Z,74.51
2019-03-20T04:53:26.994Z,74.73
2019-03-20T04:57:59.182Z,74.51
2019-03-20T04:59:06.290Z,74.44
2019-03-20T04:59:59.123Z,74.40
2019-03-20T05:01:36.505Z,74.51
2019-03-20T05:01:59.086Z,74.51
2019-03-20T05:03:00.955Z,74.62
2019-03-20T05:03:59.107Z,74.62
2019-03-20T05:04:59.858Z,74.40
2019-03-20T05:07:07.861Z,74.51
2019-03-20T05:08:07.818Z,73.55
2019-03-20T05:09:07.858Z,73.55
2019-03-20T05:10:07.794Z,73.59
2019-03-20T05:13:07.954Z,73.45
2019-03-20T05:14:07.805Z,74.22
2019-03-20T05:16:16.568Z,73.69
2019-03-20T05:17:16.505Z,74.22
2019-03-20T05:18:16.536Z,74.54
2019-03-20T05:19:17.738Z,74.12
2019-03-20T05:20:23.641Z,74.44
2019-03-20T05:21:16.456Z,74.12
2019-03-20T05:22:16.459Z,74.76
2019-03-20T05:23:16.441Z,74.33
2019-03-20T05:24:16.455Z,74.62
2019-03-20T05:25:16.438Z,74.73
2019-03-20T05:26:16.430Z,74.30
2019-03-20T05:27:16.513Z,74.65
2019-03-20T05:28:16.397Z,74.22
2019-03-20T05:29:16.359Z,74.08
2019-03-20T05:30:16.406Z,73.55
2019-03-20T05:31:16.348Z,73.55
2019-03-20T05:32:16.327Z,72.71
2019-03-20T05:33:16.332Z,72.49
2019-03-20T05:34:16.331Z,72.81
2019-03-20T05:35:16.300Z,72.81
2019-03-20T05:36:16.330Z,73.45
2019-03-20T05:37:16.281Z,73.66
2019-03-20T05:38:16.281Z,73.34
2019-03-20T05:39:16.259Z,73.77
2019-03-20T05:40:16.251Z,74.40
2019-03-20T05:41:16.234Z,74.30
2019-03-20T05:42:17.231Z,73.98
2019-03-20T05:43:16.212Z,74.30
2019-03-20T05:44:16.199Z,74.08
2019-03-20T05:45:16.241Z,73.66
2019-03-20T05:46:16.182Z,73.45
2019-03-20T05:47:16.168Z,73.87
2019-03-20T05:48:16.163Z,74.40
2019-03-20T05:49:16.149Z,74.73
2019-03-20T05:50:16.139Z,74.40
2019-03-20T05:51:16.228Z,74.62
2019-03-20T05:52:16.308Z,74.83
2019-03-20T05:53:16.155Z,74.62
2019-03-20T05:54:16.114Z,74.19
2019-03-20T05:55:16.188Z,74.30
2019-03-20T05:56:16.158Z,74.30
2019-03-20T05:57:16.132Z,74.40
2019-03-20T05:58:16.079Z,74.73
2019-03-20T05:59:16.052Z,74.30
2019-03-20T06:00:16.060Z,74.83
2019-03-20T06:01:16.072Z,75.68
2019-03-20T06:02:16.088Z,75.50
2019-03-20T06:03:16.012Z,75.50
2019-03-20T06:04:16.025Z,74.86
2019-03-20T06:05:16.029Z,74.65
2019-03-20T06:06:15.990Z,75.39
2019-03-20T06:07:21.667Z,75.29
2019-03-20T06:08:16.024Z,75.60
2019-03-20T06:09:15.959Z,75.07
2019-03-20T06:10:15.944Z,75.18
2019-03-20T06:11:15.958Z,74.93
2019-03-20T06:12:15.929Z,74.93
2019-03-20T06:13:24.260Z,74.62
2019-03-20T06:14:15.931Z,74.30
2019-03-20T06:15:15.892Z,74.19
2019-03-20T06:16:15.890Z,73.87
2019-03-20T06:17:15.881Z,73.45
2019-03-20T06:18:15.861Z,73.13
2019-03-20T06:19:15.902Z,74.05
2019-03-20T06:20:15.882Z,70.31
2019-03-20T06:21:15.827Z,71.93
2019-03-20T06:22:15.811Z,71.51
2019-03-20T06:23:15.916Z,71.40
2019-03-20T06:24:15.780Z,71.83
2019-03-20T06:25:15.813Z,69.99
2019-03-20T06:26:15.786Z,70.94
2019-03-20T06:27:25.215Z,70.73
2019-03-20T06:28:22.987Z,71.08
2019-03-20T06:29:15.787Z,71.37
2019-03-20T06:30:15.746Z,71.26
2019-03-20T06:31:22.931Z,68.19
2019-03-20T06:32:16.428Z,68.61
2019-03-20T06:33:29.177Z,68.61
2019-03-20T06:34:15.726Z,68.61
2019-03-20T06:35:22.849Z,67.63
2019-03-20T06:36:15.702Z,68.79
2019-03-20T06:37:32.485Z,66.78
2019-03-20T06:38:22.824Z,66.88
2019-03-20T06:39:16.972Z,66.35
2019-03-20T06:40:16.547Z,66.56
2019-03-20T06:41:15.622Z,66.78
2019-03-20T06:42:15.618Z,67.76
2019-03-20T06:44:24.529Z,68.67
2019-03-20T06:45:38.148Z,65.88
2019-03-20T06:46:31.518Z,61.15
2019-03-20T06:47:31.489Z,58.91
2019-03-20T06:49:56.327Z,56.70
2019-03-20T06:51:13.075Z,55.69
2019-03-20T06:51:56.981Z,54.91
2019-03-20T06:53:03.244Z,56.67
2019-03-20T06:54:03.159Z,56.62
2019-03-20T06:56:05.749Z,51.89
2019-03-20T06:57:13.299Z,52.89
2019-03-20T06:58:12.871Z,51.82
2019-03-20T07:03:16.555Z,47.87
2019-03-20T07:04:24.218Z,48.04
2019-03-20T07:05:24.637Z,48.44
2019-03-20T07:07:50.998Z,51.19
2019-03-20T07:08:59.150Z,49.62
2019-03-20T07:11:02.203Z,48.86
2019-03-20T07:12:15.570Z,48.82
2019-03-20T07:13:10.623Z,48.04
2019-03-20T07:14:07.400Z,46.70
2019-03-20T07:15:07.353Z,46.58
2019-03-20T07:17:31.835Z,45.88
2019-03-20T07:18:39.286Z,44.81
2019-03-20T07:20:40.610Z,44.90
2019-03-20T07:24:34.920Z,48.52
2019-03-20T07:25:35.573Z,48.21
2019-03-20T07:27:34.805Z,46.97
2019-03-20T07:28:41.891Z,46.80
2019-03-20T07:29:34.780Z,47.02
2019-03-20T07:30:34.778Z,46.80
2019-03-20T07:32:02.830Z,46.17
2019-03-20T07:32:34.687Z,46.59
2019-03-20T07:33:34.708Z,46.55
2019-03-20T07:34:34.662Z,44.69
2019-03-20T07:35:42.119Z,44.88
2019-03-20T07:38:52.269Z,44.10
2019-03-20T07:39:52.205Z,44.85
2019-03-20T07:41:07.077Z,44.79
2019-03-20T07:41:52.195Z,46.97
2019-03-20T07:42:52.064Z,45.63
2019-03-20T07:43:52.040Z,45.19
2019-03-20T07:44:52.333Z,45.07
2019-03-20T07:47:00.911Z,43.48
2019-03-20T07:48:00.828Z,43.90
2019-03-20T07:49:00.794Z,42.43
2019-03-20T07:50:01.043Z,41.91
2019-03-20T07:51:07.546Z,42.14
2019-03-20T07:52:00.831Z,42.03
2019-03-20T07:53:00.699Z,43.50
2019-03-20T07:54:07.901Z,43.41
2019-03-20T07:55:00.760Z,41.63
2019-03-20T07:56:02.934Z,41.32
2019-03-20T07:57:01.546Z,43.04
2019-03-20T07:58:00.761Z,43.98
2019-03-20T07:59:00.648Z,43.46
2019-03-20T08:00:00.605Z,43.88
2019-03-20T08:02:09.469Z,44.88
2019-03-20T08:03:09.377Z,44.78
2019-03-20T08:04:09.410Z,44.56
2019-03-20T08:05:10.095Z,44.94
2019-03-20T08:08:27.176Z,44.02
2019-03-20T08:09:27.187Z,42.58
2019-03-20T08:11:27.058Z,42.50
2019-03-20T08:12:27.224Z,43.10
2019-03-20T08:13:27.009Z,42.76
2019-03-20T08:14:27.015Z,41.30
2019-03-20T08:16:36.007Z,40.44
2019-03-20T08:17:36.106Z,41.67
2019-03-20T08:18:35.891Z,41.06
2019-03-20T08:19:35.875Z,43.03
2019-03-20T08:21:44.591Z,42.84
2019-03-20T08:22:44.648Z,43.65
2019-03-20T08:23:44.534Z,43.98
2019-03-20T08:25:01.190Z,43.77
2019-03-20T08:25:45.146Z,44.42
2019-03-20T08:26:44.368Z,45.48
2019-03-20T08:27:44.380Z,42.86
2019-03-20T08:28:44.398Z,44.92
2019-03-20T08:30:05.510Z,43.74
2019-03-20T08:30:45.183Z,43.03
2019-03-20T08:31:54.424Z,43.95
2019-03-20T08:32:44.489Z,42.30
2019-03-20T08:33:44.340Z,43.32
2019-03-20T08:35:23.672Z,40.97
2019-03-20T08:35:44.277Z,42.16
2019-03-20T08:36:44.248Z,44.05
2019-03-20T08:37:47.154Z,41.03
2019-03-20T08:38:52.445Z,41.93
2019-03-20T08:40:15.386Z,42.49
2019-03-20T08:40:44.248Z,42.71
2019-03-20T08:41:44.313Z,42.09
2019-03-20T08:42:55.304Z,42.28
2019-03-20T08:43:53.838Z,43.24
2019-03-20T08:45:54.140Z,42.50
2019-03-20T08:48:03.735Z,43.32
2019-03-20T08:50:28.936Z,41.86
2019-03-20T08:51:35.986Z,42.88
2019-03-20T08:52:43.199Z,43.19
2019-03-20T08:54:55.598Z,41.63
2019-03-20T08:56:02.067Z,41.63
2019-03-20T08:59:20.575Z,41.61
2019-03-20T09:00:27.583Z,41.41
2019-03-20T09:01:30.219Z,40.78
2019-03-20T09:02:32.325Z,42.76
2019-03-20T09:03:31.317Z,42.36
2019-03-20T09:07:09.573Z,44.03
2019-03-20T09:08:07.049Z,42.76
2019-03-20T09:09:16.016Z,43.11
2019-03-20T09:10:15.717Z,42.69
2019-03-20T09:11:18.217Z,44.15
2019-03-20T09:14:07.186Z,42.59
2019-03-20T09:15:17.937Z,42.88
2019-03-20T09:16:06.920Z,43.51
2019-03-20T09:17:06.995Z,43.82
2019-03-20T09:18:06.882Z,44.61
2019-03-20T09:19:06.986Z,44.70
2019-03-20T09:20:06.808Z,41.04
2019-03-20T09:21:06.782Z,41.77
2019-03-20T09:22:06.786Z,41.08
2019-03-20T09:23:06.818Z,43.16
2019-03-20T09:24:06.755Z,41.68
2019-03-20T09:25:06.759Z,39.77
2019-03-20T09:26:06.739Z,43.20
2019-03-20T09:27:06.724Z,40.48
2019-03-20T09:28:06.707Z,42.29
2019-03-20T09:29:06.733Z,41.13
2019-03-20T09:30:06.694Z,40.00
2019-03-20T09:31:06.729Z,42.18
2019-03-20T09:32:06.671Z,43.53
2019-03-20T09:33:06.655Z,41.83
2019-03-20T09:34:06.645Z,39.06
2019-03-20T09:35:07.087Z,42.18
2019-03-20T09:36:06.624Z,41.47
2019-03-20T09:37:06.631Z,39.17
2019-03-20T09:38:06.645Z,42.37
2019-03-20T09:39:06.590Z,43.24
2019-03-20T09:40:06.581Z,43.76
2019-03-20T09:41:06.572Z,42.60
2019-03-20T09:42:06.560Z,40.94
2019-03-20T09:43:06.661Z,42.47
2019-03-20T09:44:06.544Z,41.31
2019-03-20T09:45:06.530Z,41.44
2019-03-20T09:46:06.525Z,42.25
2019-03-20T09:47:06.507Z,40.50
2019-03-20T09:48:06.491Z,41.83
2019-03-20T09:49:06.521Z,38.94
2019-03-20T09:50:06.474Z,40.61
2019-03-20T09:51:06.482Z,41.75
2019-03-20T09:52:06.446Z,39.56
2019-03-20T09:53:06.441Z,42.02
2019-03-20T09:54:06.470Z,40.78
2019-03-20T09:55:06.418Z,37.26
2019-03-20T09:56:06.409Z,39.54
2019-03-20T09:57:06.446Z,39.34
2019-03-20T09:58:11.429Z,42.62
2019-03-20T09:59:07.374Z,37.18
2019-03-20T10:00:06.365Z,41.71
2019-03-20T10:01:06.353Z,39.39
2019-03-20T10:02:06.347Z,40.41
2019-03-20T10:03:06.535Z,37.19
2019-03-20T10:04:06.324Z,34.38
2019-03-20T10:05:06.313Z,37.51
2019-03-20T10:06:06.300Z,37.65
2019-03-20T10:07:06.295Z,36.07
2019-03-20T10:08:06.294Z,37.40
2019-03-20T10:09:06.320Z,38.23
2019-03-20T10:10:06.258Z,38.67
2019-03-20T10:11:06.246Z,39.00
2019-03-20T10:12:06.235Z,38.56
2019-03-20T10:13:06.225Z,38.37
2019-03-20T10:14:06.221Z,38.70
2019-03-20T10:15:06.247Z,38.70
2019-03-20T10:16:06.191Z,39.97
2019-03-20T10:17:08.267Z,41.17
2019-03-20T10:18:06.170Z,36.82
2019-03-20T10:19:06.165Z,38.08
2019-03-20T10:20:06.189Z,40.84
2019-03-20T10:21:07.023Z,39.51
2019-03-20T10:22:06.133Z,38.06
2019-03-20T10:23:06.120Z,39.41
2019-03-20T10:24:06.102Z,38.56
2019-03-20T10:25:06.134Z,41.03
2019-03-20T10:26:06.082Z,39.95
2019-03-20T10:27:06.083Z,40.37
2019-03-20T10:28:06.132Z,39.04
2019-03-20T10:29:06.053Z,37.40
2019-03-20T10:30:06.048Z,38.48
2019-03-20T10:31:08.206Z,39.32
2019-03-20T10:32:06.025Z,39.10
2019-03-20T10:33:06.028Z,39.41
2019-03-20T10:34:05.995Z,38.51
2019-03-20T10:35:05.989Z,37.18
2019-03-20T10:36:05.975Z,38.44
2019-03-20T10:37:06.011Z,38.67
2019-03-20T10:38:05.955Z,39.44
2019-03-20T10:39:06.991Z,38.47
2019-03-20T10:40:05.952Z,34.64
2019-03-20T10:41:05.927Z,34.97
2019-03-20T10:42:05.938Z,37.07
2019-03-20T10:43:05.939Z,37.28
2019-03-20T10:44:05.886Z,38.96
2019-03-20T10:45:06.526Z,38.71
2019-03-20T10:46:05.866Z,38.53
2019-03-20T10:47:05.855Z,37.57
2019-03-20T10:48:08.462Z,39.92
2019-03-20T10:49:05.872Z,37.95
2019-03-20T10:50:06.493Z,34.97
2019-03-20T10:51:05.814Z,36.29
2019-03-20T10:52:12.961Z,36.09
2019-03-20T10:53:06.574Z,37.13
2019-03-20T10:54:12.971Z,37.97
2019-03-20T10:55:05.829Z,36.80
2019-03-20T10:56:18.125Z,35.99
2019-03-20T10:57:12.935Z,35.61
2019-03-20T10:58:05.761Z,37.15
2019-03-20T10:59:07.238Z,35.61
2019-03-20T11:00:13.198Z,38.07
2019-03-20T11:01:05.740Z,37.46
2019-03-20T11:02:15.932Z,36.00
2019-03-20T11:03:06.758Z,37.55
2019-03-20T11:04:05.699Z,36.11
2019-03-20T11:05:05.708Z,36.21
2019-03-20T11:06:05.795Z,37.66
2019-03-20T11:07:05.657Z,37.25
2019-03-20T11:08:06.231Z,37.15
2019-03-20T11:09:18.125Z,37.65
2019-03-20T11:10:12.849Z,35.08
2019-03-20T11:11:05.702Z,34.77
2019-03-20T11:12:05.625Z,38.76
2019-03-20T11:13:12.859Z,36.80
2019-03-20T11:14:05.623Z,37.01
2019-03-20T11:15:12.745Z,34.85
2019-03-20T11:16:06.395Z,36.30
2019-03-20T11:17:05.615Z,37.15
2019-03-20T11:18:15.532Z,36.11
2019-03-20T11:19:05.609Z,39.20
2019-03-20T11:20:05.574Z,38.14
2019-03-20T11:21:12.733Z,39.39
2019-03-20T11:22:05.515Z,37.19
2019-03-20T11:23:05.529Z,38.43
2019-03-20T11:24:15.337Z,38.75
2019-03-20T11:25:05.575Z,36.71
2019-03-20T11:26:12.640Z,36.49
2019-03-20T11:27:05.582Z,38.56
2019-03-20T11:28:05.515Z,36.88
2019-03-20T11:29:05.601Z,37.23
2019-03-20T11:30:05.421Z,37.65
2019-03-20T11:31:12.581Z,38.24
2019-03-20T11:32:05.403Z,38.02
2019-03-20T11:33:05.412Z,38.21
2019-03-20T11:34:05.451Z,35.73
2019-03-20T11:35:05.391Z,36.99
2019-03-20T11:36:06.180Z,38.56
2019-03-20T11:37:08.064Z,37.51
2019-03-20T11:38:12.534Z,35.87
2019-03-20T11:39:05.349Z,37.09
2019-03-20T11:40:05.412Z,37.61
2019-03-20T11:41:05.322Z,36.27
2019-03-20T11:42:06.285Z,31.12
2019-03-20T11:43:12.422Z,35.01
2019-03-20T11:44:05.281Z,34.80
2019-03-20T11:45:05.259Z,33.34
2019-03-20T11:46:12.830Z,35.73
2019-03-20T11:47:05.263Z,37.88
2019-03-20T11:48:05.222Z,36.87
2019-03-20T11:50:13.976Z,35.83
2019-03-20T11:51:14.010Z,37.73
2019-03-20T11:52:13.967Z,38.52
2019-03-20T11:53:22.806Z,36.49
2019-03-20T11:57:54.810Z,35.04
2019-03-20T11:59:05.772Z,34.83
2019-03-20T12:00:04.359Z,36.66
2019-03-20T12:02:28.019Z,35.89
2019-03-20T12:03:28.379Z,35.97
2019-03-20T12:07:15.112Z,35.11
2019-03-20T12:10:20.787Z,34.91
2019-03-20T12:12:58.147Z,35.77
2019-03-20T12:13:49.382Z,35.77
2019-03-20T12:14:52.576Z,36.80
2019-03-20T12:20:53.393Z,37.09
2019-03-20T12:21:52.538Z,37.01
2019-03-20T12:22:58.002Z,35.70
2019-03-20T12:23:52.478Z,38.24
2019-03-20T12:25:00.552Z,38.00
2019-03-20T12:29:03.806Z,35.14
2019-03-20T12:31:20.161Z,35.17
2019-03-20T12:32:19.908Z,34.00
2019-03-20T12:33:19.901Z,37.70
2019-03-20T12:35:23.221Z,35.31
2019-03-20T12:37:45.570Z,35.63
2019-03-20T12:38:47.560Z,36.35
2019-03-20T12:39:53.062Z,36.47
2019-03-20T12:42:32.603Z,35.38
2019-03-20T12:43:40.133Z,35.99
2019-03-20T12:44:35.005Z,35.51
2019-03-20T12:47:09.577Z,35.77
2019-03-20T12:48:16.692Z,34.86
2019-03-20T12:49:16.629Z,35.28
2019-03-20T12:51:33.345Z,37.28
2019-03-20T12:58:29.804Z,37.45
2019-03-20T13:02:49.271Z,35.96
2019-03-20T13:05:01.489Z,34.30
2019-03-20T13:06:12.171Z,34.94
2019-03-20T13:07:06.716Z,36.60
2019-03-20T13:08:11.460Z,35.34
2019-03-20T13:09:04.897Z,35.46
2019-03-20T13:15:35.295Z,35.41
2019-03-20T13:18:04.550Z,36.34
2019-03-20T13:19:11.600Z,36.11
2019-03-20T13:20:05.063Z,33.18
2019-03-20T13:21:12.103Z,35.55
2019-03-20T13:22:04.440Z,35.43
2019-03-20T13:23:05.030Z,37.47
2019-03-20T13:24:04.472Z,36.32
2019-03-20T13:25:04.356Z,33.84
2019-03-20T13:26:11.529Z,33.23
2019-03-20T13:27:05.071Z,33.58
2019-03-20T13:28:04.358Z,33.93
2019-03-20T13:31:57.101Z,35.41
2019-03-20T13:32:57.058Z,35.72
2019-03-20T13:34:12.594Z,33.15
2019-03-20T13:35:14.118Z,32.54
2019-03-20T13:37:05.782Z,32.76
2019-03-20T13:38:06.444Z,33.07
2019-03-20T13:40:13.808Z,32.44
2019-03-20T13:41:06.392Z,34.17
2019-03-20T13:42:05.680Z,31.96
2019-03-20T13:43:07.400Z,34.03
2019-03-20T13:44:05.593Z,35.17
2019-03-20T13:45:42.473Z,36.82
2019-03-20T13:46:12.732Z,35.24
2019-03-20T13:47:08.043Z,34.48
2019-03-20T13:48:05.657Z,35.41
2019-03-20T13:49:05.588Z,32.72
2019-03-20T13:50:14.640Z,31.81
2019-03-20T13:51:08.419Z,33.56
2019-03-20T13:52:05.572Z,34.19
2019-03-20T13:53:05.499Z,33.90
2019-03-20T13:54:20.420Z,36.10
2019-03-20T13:55:12.641Z,36.06
2019-03-20T13:56:05.464Z,35.65
2019-03-20T13:57:06.419Z,35.22
2019-03-20T13:58:05.487Z,34.80
2019-03-20T13:59:05.430Z,32.22
2019-03-20T14:00:05.497Z,34.52
2019-03-20T14:01:05.408Z,32.25
2019-03-20T14:02:09.917Z,31.32
2019-03-20T14:03:07.881Z,34.52
2019-03-20T14:04:12.714Z,32.97
2019-03-20T14:05:22.175Z,35.14
2019-03-20T14:06:05.408Z,34.62
2019-03-20T14:07:05.474Z,33.29
2019-03-20T14:08:05.354Z,33.31
2019-03-20T14:09:11.454Z,34.83
2019-03-20T14:10:07.453Z,33.47
2019-03-20T14:11:05.326Z,34.50
2019-03-20T14:12:05.291Z,34.31
2019-03-20T14:13:05.283Z,35.74
2019-03-20T14:14:05.281Z,35.12
2019-03-20T14:15:05.258Z,34.41
2019-03-20T14:16:05.301Z,35.43
2019-03-20T14:17:05.233Z,35.25
2019-03-20T14:18:05.227Z,35.63
2019-03-20T14:20:09.951Z,34.17
2019-03-20T14:21:05.197Z,33.97
2019-03-20T14:22:05.274Z,34.91
2019-03-20T14:23:05.212Z,31.19
2019-03-20T14:24:06.258Z,32.86
2019-03-20T14:25:05.951Z,34.83
2019-03-20T14:26:05.943Z,33.92
2019-03-20T14:27:05.132Z,33.83
2019-03-20T14:28:05.131Z,35.48
2019-03-20T14:29:05.954Z,33.83
2019-03-20T14:30:27.191Z,35.17
2019-03-20T14:31:05.082Z,35.89
2019-03-20T14:32:05.935Z,35.17
2019-03-20T14:33:24.632Z,35.77
2019-03-20T14:34:06.158Z,34.03